Data for 05/04/2016

Time Sea-Level Adjusted Pressure Absolute Pressure Temperature Relative Humidity Dew Point   
(mb) (inHg) (mb) (inHg) (C) (F) (%) (C) (F)
00:05 1021 30.15 851 25.13 11.2 52.1 40 -1.8 28.7
00:10 1021 30.15 851 25.13 11.4 52.4 40 -1.8 28.7
00:15 1021 30.15 851 25.13 11.5 52.8 39 -1.8 28.8
00:20 1021 30.15 851 25.13 11.4 52.5 40 -1.7 28.9
00:25 1021 30.15 851 25.13 11.4 52.4 40 -1.7 29
00:30 1021 30.15 851 25.13 11.2 52.2 40 -1.7 28.9
00:35 1021 30.15 851 25.13 11.2 52.2 40 -1.8 28.8
00:40 1022 30.18 851 25.13 11.3 52.3 40 -1.8 28.7
00:45 1022 30.18 851 25.13 11.3 52.4 40 -1.7 28.9
00:50 1022 30.18 851 25.13 11.2 52.1 40 -1.8 28.8
00:55 1022 30.18 851 25.13 11.1 52 40 -1.7 28.9
01:00 1022 30.18 851 25.13 11.1 51.9 41 -1.6 29.2
01:05 1022 30.18 851 25.13 10.8 51.4 42 -1.6 29
01:10 1022 30.18 851 25.13 10.7 51.3 41 -1.9 28.6
01:15 1022 30.18 851 25.13 10.8 51.4 42 -1.6 29
01:20 1022 30.18 851 25.13 10.8 51.4 42 -1.7 29
01:25 1022 30.18 851 25.13 11 51.8 40 -2.2 28.1
01:30 1022 30.18 851 25.13 11.3 52.3 39 -2.1 28.3
01:35 1022 30.18 851 25.13 11.3 52.3 39 -2.1 28.2
01:40 1022 30.18 851 25.13 11.4 52.4 40 -1.8 28.7
01:45 1022 30.18 851 25.13 11.2 52.1 38 -2.5 27.6
01:50 1022 30.18 851 25.13 11.6 52.8 38 -2.4 27.7
01:55 1021 30.15 851 25.13 11.5 52.8 40 -1.7 28.9
02:00 1022 30.18 851 25.13 10.9 51.7 40 -2 28.4
02:05 1022 30.18 851 25.13 10.7 51.3 40 -2.2 28
02:10 1021 30.15 851 25.13 10.7 51.3 39 -2.8 27
02:15 1021 30.15 851 25.13 10.7 51.3 40 -2.2 28.1
02:20 1021 30.15 851 25.13 10.4 50.8 41 -2.1 28.2
02:25 1021 30.15 851 25.13 10.4 50.7 41 -2.3 27.8
02:30 1021 30.15 851 25.13 10.6 51.1 41 -1.9 28.5
02:35 1021 30.15 851 25.13 10.2 50.4 43 -1.9 28.7
02:40 1021 30.15 851 25.13 9.8 49.6 44 -2 28.4
02:45 1021 30.15 851 25.13 9.6 49.3 44 -2.1 28.2
02:50 1021 30.15 851 25.13 9.7 49.4 44 -2 28.5
02:55 1021 30.15 851 25.13 9.5 49.2 44 -1.9 28.5
03:00 1021 30.15 851 25.13 9.4 49 44 -2.2 28.1
03:05 1021 30.15 851 25.13 9.6 49.2 43 -2.2 28
03:10 1021 30.15 851 25.13 9.6 49.4 43 -2.4 27.7
03:15 1021 30.15 851 25.13 9.6 49.2 43 -2.5 27.6
03:20 1021 30.15 851 25.13 9.5 49.1 43 -2.5 27.6
03:25 1021 30.15 851 25.13 9.4 48.9 44 -2.3 27.9
03:30 1021 30.15 851 25.13 9.5 49.1 41 -3.1 26.4
03:35 1021 30.15 851 25.13 10 50 40 -3 26.6
03:40 1021 30.15 851 25.13 10 50.1 40 -2.8 26.9
03:45 1021 30.15 851 25.13 10.3 50.5 38 -3.4 25.9
03:50 1021 30.15 851 25.13 10.5 50.8 39 -2.9 26.8
03:55 1021 30.15 851 25.13 10.4 50.7 39 -2.9 26.7
04:00 1021 30.15 850 25.1 10.2 50.3 39 -3 26.6
04:05 1021 30.15 850 25.1 10.2 50.3 39 -3.1 26.5
04:10 1021 30.15 850 25.1 9.9 49.9 41 -2.7 27.1
04:15 1021 30.15 850 25.1 9.4 48.9 41 -3.1 26.4
04:20 1021 30.15 850 25.1 9.3 48.7 42 -2.9 26.7
04:25 1021 30.15 850 25.1 9.5 49 40 -3.4 25.8
04:30 1021 30.15 850 25.1 9.5 49.2 41 -2.9 26.8
04:35 1021 30.15 850 25.1 9.1 48.4 43 -2.8 27
04:40 1021 30.15 850 25.1 8.8 47.8 43 -3 26.5
04:45 1021 30.15 850 25.1 8.8 47.8 43 -3 26.6
04:50 1021 30.15 850 25.1 8.6 47.5 44 -3 26.6
04:55 1021 30.15 850 25.1 8.6 47.5 43 -3.4 25.9
05:00 1021 30.15 850 25.1 9 48.1 42 -3.2 26.2
05:05 1021 30.15 850 25.1 8.8 47.9 42 -3.3 26
05:10 1021 30.15 850 25.1 9 48.2 41 -3.7 25.4
05:15 1021 30.15 850 25.1 9.3 48.7 39 -3.9 25
05:20 1021 30.15 850 25.1 9.6 49.2 38 -3.9 25
05:25 1021 30.15 851 25.13 9.7 49.5 39 -3.7 25.3
05:30 1021 30.15 851 25.13 9.5 49.1 39 -3.7 25.3
05:35 1021 30.15 851 25.13 9.3 48.7 40 -3.6 25.5
05:40 1021 30.15 851 25.13 9.1 48.4 41 -3.5 25.7
05:45 1021 30.15 851 25.13 9.1 48.3 40 -3.7 25.3
05:50 1021 30.15 851 25.13 9.3 48.7 39 -3.9 25
05:55 1021 30.15 851 25.13 9.7 49.4 35 -4.9 23.2
06:00 1021 30.15 851 25.13 10.5 50.9 34 -4.6 23.8
06:05 1022 30.18 851 25.13 10.6 51.2 35 -4.2 24.5
06:10 1022 30.18 851 25.13 10.7 51.3 34 -4.7 23.6
06:15 1022 30.18 851 25.13 11 51.8 31 -5.4 22.3
06:20 1022 30.18 851 25.13 11.6 52.9 31 -5 23
06:25 1022 30.18 851 25.13 11.8 53.2 31 -4.6 23.8
06:30 1022 30.18 851 25.13 11.9 53.5 30 -4.8 23.3
06:35 1022 30.18 851 25.13 12.2 53.9 31 -4.5 24
06:40 1022 30.18 851 25.13 12.2 54 32 -3.9 25
06:45 1022 30.18 851 25.13 12.5 54.5 31 -4 24.7
06:50 1022 30.18 851 25.13 12.6 54.8 31 -3.8 25.1
06:55 1022 30.18 851 25.13 12.9 55.2 31 -3.9 25
07:00 1022 30.18 851 25.13 12.9 55.1 33 -3 26.5
07:05 1022 30.18 851 25.13 13.2 55.8 32 -3.1 26.4
07:10 1022 30.18 851 25.13 13.9 57 31 -3 26.7
07:15 1022 30.18 851 25.13 14.1 57.4 31 -2.7 27.1
07:20 1022 30.18 851 25.13 14.1 57.4 31 -2.6 27.2
07:25 1022 30.18 851 25.13 14.7 58.5 30 -2.6 27.4
07:30 1022 30.18 851 25.13 14.7 58.5 32 -1.9 28.6
07:35 1022 30.18 851 25.13 15 59 30 -2.3 27.9
07:40 1022 30.18 851 25.13 15.7 60.2 30 -1.9 28.6
07:45 1022 30.18 851 25.13 16.2 61.2 28 -2.2 28
07:50 1022 30.18 851 25.13 16.3 61.3 28 -2.2 28
07:55 1022 30.18 851 25.13 16.6 61.9 28 -1.9 28.5
08:00 1021 30.15 851 25.13 16.9 62.4 27 -1.9 28.5
08:05 1021 30.15 851 25.13 17.5 63.5 26 -2.2 28
08:10 1021 30.15 851 25.13 17.7 63.8 25 -2.4 27.6
08:15 1021 30.15 851 25.13 18 64.4 25 -2.3 27.9
08:20 1021 30.15 851 25.13 18.4 65 24 -2.5 27.6
08:25 1021 30.15 851 25.13 18.3 64.9 26 -1.3 29.7
08:30 1021 30.15 851 25.13 18.6 65.5 24 -2.2 28.1
08:35 1021 30.15 851 25.13 18.6 65.4 24 -2.2 28
08:40 1021 30.15 850 25.1 18.7 65.7 24 -2.1 28.2
08:45 1021 30.15 850 25.1 18.4 65.1 25 -2.1 28.3
08:50 1021 30.15 850 25.1 19.1 66.4 25 -1.2 29.8
08:55 1021 30.15 850 25.1 20.1 68.2 21 -2.5 27.5
09:00 1021 30.15 850 25.1 20.7 69.2 21 -2.1 28.2
09:05 1021 30.15 850 25.1 20.6 69.1 23 -1.3 29.6
09:10 1021 30.15 850 25.1 20.6 69.1 23 -1.3 29.7
09:15 1021 30.15 850 25.1 19.8 67.7 25 -0.7 30.7
09:20 1021 30.15 850 25.1 20.3 68.6 23 -1.2 29.9
09:25 1021 30.15 850 25.1 19.8 67.7 25 -0.5 31.1
09:30 1021 30.15 850 25.1 20.5 68.9 24 -0.7 30.7
09:35 1021 30.15 850 25.1 21.3 70.3 23 -0.2 31.6
09:40 1021 30.15 850 25.1 20.5 68.9 23 -1.4 29.5
09:45 1021 30.15 850 25.1 20.5 68.9 23 -1.2 29.8
09:50 1021 30.15 850 25.1 21.1 70 22 -1.3 29.7
09:55 1020 30.12 850 25.1 22.1 71.8 21 -1.1 30
10:00 1020 30.12 850 25.1 22.4 72.3 21 -0.7 30.8
10:05 1020 30.12 850 25.1 22.5 72.5 21 -0.9 30.3
10:10 1020 30.12 850 25.1 21 69.7 22 -1.3 29.6
10:15 1020 30.12 849 25.07 21.4 70.5 21 -1.7 28.9
10:20 1020 30.12 849 25.07 22.3 72.1 19 -2 28.4
10:25 1020 30.12 849 25.07 22.7 72.8 19 -2.2 28
10:30 1020 30.12 849 25.07 22.4 72.4 19 -1.8 28.8
10:35 1020 30.12 849 25.07 22.6 72.7 18 -2.5 27.6
10:40 1020 30.12 849 25.07 23.3 73.9 15 -4.2 24.4
10:45 1020 30.12 849 25.07 22.8 73 18 -2.9 26.8
10:50 1020 30.12 849 25.07 22.5 72.6 18 -2.6 27.3
10:55 1020 30.12 849 25.07 22.9 73.3 18 -2.7 27.1
11:00 1020 30.12 849 25.07 23.7 74.7 15 -4 24.8
11:05 1020 30.12 849 25.07 24.7 76.4 15 -3.4 26
11:10 1020 30.12 849 25.07 25 76.9 16 -2 28.4
11:15 1020 30.12 849 25.07 24.9 76.8 15 -3.4 25.9
11:20 1020 30.12 849 25.07 24.5 76 15 -3.4 25.8
11:25 1020 30.12 849 25.07 24.9 76.7 15 -3.5 25.7
11:30 1020 30.12 849 25.07 24.6 76.3 16 -3.1 26.5
11:35 1020 30.12 849 25.07 24.3 75.7 14 -4.8 23.4
11:40 1020 30.12 849 25.07 24.5 76 15 -3.3 26.1
11:45 1019 30.09 849 25.07 24.9 76.9 15 -3.4 25.8
11:50 1019 30.09 849 25.07 25.4 77.7 14 -4.1 24.7
11:55 1019 30.09 849 25.07 25 76.9 16 -2.7 27.1
12:00 1019 30.09 848 25.04 23.8 74.9 15 -3.7 25.3
12:05 1019 30.09 848 25.04 24.2 75.5 15 -3.7 25.3
12:10 1019 30.09 848 25.04 24.6 76.2 15 -3.8 25.1
12:15 1019 30.09 848 25.04 24.8 76.6 14 -4.1 24.6
12:20 1019 30.09 848 25.04 23.7 74.7 15 -4.6 23.8
12:25 1019 30.09 848 25.04 23.6 74.5 15 -4.6 23.7
12:30 1019 30.09 848 25.04 24.3 75.8 14 -5 23
12:35 1019 30.09 848 25.04 24.8 76.7 14 -4.6 23.8
12:40 1019 30.09 848 25.04 25 77.1 14 -4.1 24.7
12:45 1019 30.09 848 25.04 25.2 77.4 14 -3.9 25
12:50 1019 30.09 848 25.04 24.9 76.7 15 -3.7 25.3
12:55 1019 30.09 848 25.04 25.2 77.4 13 -4.5 23.9
13:00 1019 30.09 848 25.04 25.2 77.4 14 -3.9 25.1
13:05 1019 30.09 848 25.04 25.1 77.1 14 -4.4 24
13:10 1018 30.06 848 25.04 24.9 76.7 14 -4.2 24.5
13:15 1018 30.06 848 25.04 25.6 78.2 13 -4.5 23.8
13:20 1018 30.06 848 25.04 25.4 77.8 13 -4.3 24.3
13:25 1018 30.06 847 25.01 24.8 76.7 16 -2.4 27.7
13:30 1018 30.06 847 25.01 24.7 76.5 15 -3.8 25.1
13:35 1018 30.06 847 25.01 24.9 76.9 14 -4.5 23.9
13:40 1018 30.06 847 25.01 25.5 77.9 13 -4.2 24.4
13:45 1018 30.06 847 25.01 26.1 79 12 -4.8 23.4
13:50 1018 30.06 847 25.01 26.2 79.1 13 -3.9 25.1
13:55 1018 30.06 847 25.01 26.6 79.9 12 -4.7 23.6
14:00 1018 30.06 847 25.01 25.7 78.2 12 -5.5 22.1
14:05 1018 30.06 847 25.01 24.5 76.1 14 -4.9 23.2
14:10 1018 30.06 847 25.01 24.3 75.7 13 -5.4 22.3
14:15 1018 30.06 847 25.01 24.7 76.5 13 -5.4 22.2
14:20 1018 30.06 847 25.01 24.9 76.8 13 -5.4 22.2
14:25 1018 30.06 847 25.01 24.9 76.8 13 -4.8 23.4
14:30 1018 30.06 847 25.01 24.5 76.1 14 -4.9 23.2
14:35 1018 30.06 847 25.01 24.3 75.7 13 -6.1 21
14:40 1018 30.06 847 25.01 24.7 76.5 13 -5.7 21.8
14:45 1018 30.06 847 25.01 24.9 76.7 12 -6.7 20
14:50 1018 30.06 847 25.01 24.8 76.6 12 -6.4 20.5
14:55 1018 30.06 847 25.01 24.7 76.5 12 -6.1 21
15:00 1018 30.06 847 25.01 25.2 77.3 13 -4.9 23.1
15:05 1017 30.03 847 25.01 25.2 77.3 12 -5.8 21.6
15:10 1017 30.03 847 25.01 25.5 78 13 -5 23.1
15:15 1017 30.03 847 25.01 25.7 78.3 12 -5.3 22.5
15:20 1017 30.03 847 25.01 25.7 78.3 12 -5.3 22.4
15:25 1017 30.03 847 25.01 25.3 77.5 12 -6.3 20.7
15:30 1017 30.03 847 25.01 24.1 75.3 12 -6.4 20.4
15:35 1017 30.03 847 25.01 24.3 75.7 13 -6 21.3
15:40 1017 30.03 846 24.98 24.1 75.4 12 -6.8 19.8
15:45 1017 30.03 846 24.98 23.9 74.9 14 -5.2 22.7
15:50 1017 30.03 846 24.98 23.9 75.1 14 -5.2 22.7
15:55 1017 30.03 846 24.98 24.3 75.7 13 -5.5 22.1
16:00 1017 30.03 846 24.98 24.4 75.9 13 -5.9 21.4
16:05 1017 30.03 846 24.98 24.5 76 13 -5.3 22.5
16:10 1017 30.03 846 24.98 24.7 76.5 12 -6.1 21.1
16:15 1017 30.03 846 24.98 24.6 76.4 12 -6.8 19.7
16:20 1017 30.03 846 24.98 24.5 76.2 12 -6.4 20.5
16:25 1017 30.03 846 24.98 24.6 76.2 13 -5.8 21.5
16:30 1017 30.03 846 24.98 24.9 76.7 12 -6.1 21
16:35 1017 30.03 846 24.98 24.8 76.6 12 -6.3 20.7
16:40 1017 30.03 846 24.98 24.3 75.8 12 -7.2 19
16:45 1017 30.03 846 24.98 24.7 76.5 12 -6.3 20.7
16:50 1017 30.03 846 24.98 24.9 76.9 13 -5.3 22.4
16:55 1017 30.03 846 24.98 25.1 77.2 13 -5 23
17:00 1017 30.03 846 24.98 25.2 77.3 12 -5.6 22
17:05 1017 30.03 846 24.98 24.6 76.2 12 -7 19.4
17:10 1017 30.03 846 24.98 24.1 75.4 14 -4.8 23.4
17:15 1017 30.03 846 24.98 24.3 75.7 14 -4.9 23.3
17:20 1017 30.03 846 24.98 24.3 75.7 14 -4.4 24
17:25 1017 30.03 846 24.98 24.3 75.8 14 -4.5 24
17:30 1017 30.03 846 24.98 24 75.2 14 -4.5 23.9
17:35 1017 30.03 846 24.98 23.5 74.3 14 -5.4 22.3
17:40 1017 30.03 846 24.98 23.3 73.9 14 -5.9 21.4
17:45 1017 30.03 846 24.98 23 73.3 14 -5.4 22.2
17:50 1017 30.03 846 24.98 22.9 73.1 15 -4.6 23.7
17:55 1017 30.03 846 24.98 22.8 73 15 -5.5 22.2
18:00 1017 30.03 846 24.98 22.8 73.1 14 -5.5 22
18:05 1017 30.03 846 24.98 22.8 73.1 14 -6.3 20.7
18:10 1017 30.03 846 24.98 23 73.3 14 -6.2 20.9
18:15 1017 30.03 846 24.98 22.9 73.2 14 -5.5 22.1
18:20 1017 30.03 846 24.98 22.7 72.9 15 -5.3 22.4
18:25 1017 30.03 846 24.98 22.5 72.5 15 -4.9 23.2
18:30 1017 30.03 846 24.98 22.5 72.5 17 -3.9 25
18:35 1017 30.03 846 24.98 22.6 72.8 16 -4.6 23.7
18:40 1017 30.03 846 24.98 22.6 72.6 17 -3.8 25.1
18:45 1017 30.03 846 24.98 22.4 72.4 16 -4.8 23.4
18:50 1017 30.03 846 24.98 22.3 72.1 17 -3.7 25.3
18:55 1017 30.03 846 24.98 22.1 71.8 17 -3.9 25.1
19:00 1017 30.03 846 24.98 22 71.5 15 -5.4 22.2
19:05 1017 30.03 846 24.98 21.9 71.3 17 -4 24.8
19:10 1017 30.03 846 24.98 21.7 71 18 -3.8 25.2
19:15 1017 30.03 846 24.98 21.5 70.7 17 -4.1 24.6
19:20 1017 30.03 846 24.98 21.4 70.4 18 -3.9 25
19:25 1017 30.03 846 24.98 21.1 70 18 -4.3 24.3
19:30 1017 30.03 846 24.98 20.9 69.6 20 -2.9 26.9
19:35 1017 30.03 846 24.98 20.1 68.1 21 -2.6 27.3
19:40 1017 30.03 846 24.98 19.6 67.3 21 -2.9 26.7
19:45 1017 30.03 846 24.98 19.5 67.1 23 -2.2 28
19:50 1017 30.03 846 24.98 19 66.2 24 -1.9 28.6
19:55 1017 30.03 846 24.98 18.4 65.2 25 -2 28.3
20:00 1017 30.03 846 24.98 17.9 64.2 27 -1.4 29.6
20:05 1017 30.03 846 24.98 17.4 63.4 28 -1.4 29.5
20:10 1017 30.03 846 24.98 16.9 62.5 26 -2.7 27.1
20:15 1017 30.03 846 24.98 16.8 62.3 26 -2.6 27.3
20:20 1017 30.03 846 24.98 16.7 62 26 -3 26.6
20:25 1017 30.03 846 24.98 16.2 61.2 29 -1.5 29.3
20:30 1017 30.03 846 24.98 15.7 60.2 28 -2.7 27.2
20:35 1017 30.03 846 24.98 15.6 60 27 -3.2 26.3
20:40 1017 30.03 846 24.98 15.7 60.2 26 -3.5 25.8
20:45 1017 30.03 846 24.98 15.7 60.2 26 -3.8 25.2
20:50 1017 30.03 846 24.98 15.7 60.3 27 -3.4 26
20:55 1017 30.03 846 24.98 15.5 60 27 -3.2 26.3
21:00 1017 30.03 846 24.98 15.3 59.5 28 -2.9 26.7
21:05 1017 30.03 846 24.98 15.2 59.3 28 -3 26.5
21:10 1017 30.03 846 24.98 15.2 59.3 27 -3.5 25.7
21:15 1017 30.03 846 24.98 15.3 59.5 26 -4.1 24.7
21:20 1017 30.03 846 24.98 15.7 60.2 25 -4 24.8
21:25 1017 30.03 846 24.98 15.7 60.2 26 -3.9 25
21:30 1017 30.03 846 24.98 15.7 60.2 26 -3.7 25.4
21:35 1017 30.03 846 24.98 15.5 59.9 26 -3.8 25.2
21:40 1017 30.03 846 24.98 15.5 59.8 28 -3 26.6
21:45 1017 30.03 846 24.98 15.2 59.4 28 -3 26.6
21:50 1017 30.03 846 24.98 15 59.1 29 -3 26.6
21:55 1017 30.03 846 24.98 15 59 29 -2.8 26.9
22:00 1017 30.03 846 24.98 14.8 58.7 30 -2.6 27.3
22:05 1017 30.03 846 24.98 14.7 58.5 29 -2.9 26.7
22:10 1017 30.03 846 24.98 14.8 58.7 29 -3.1 26.4
22:15 1017 30.03 846 24.98 15 58.9 29 -3.1 26.5
22:20 1017 30.03 846 24.98 14.9 58.8 28 -3.3 26.1
22:25 1017 30.03 846 24.98 14.8 58.6 28 -3.3 26.1
22:30 1017 30.03 846 24.98 14.7 58.5 29 -3.2 26.3
22:35 1017 30.03 846 24.98 14.5 58.2 29 -3.1 26.4
22:40 1017 30.03 846 24.98 14.4 58 29 -3.1 26.4
22:45 1017 30.03 846 24.98 14.4 58 29 -3.3 26.1
22:50 1017 30.03 846 24.98 14.5 58 30 -3 26.6
22:55 1017 30.03 846 24.98 14.4 58 30 -3.1 26.5
23:00 1017 30.03 846 24.98 14.5 58 29 -3.2 26.2
23:05 1017 30.03 846 24.98 14.4 57.9 30 -2.8 26.9
23:10 1017 30.03 846 24.98 14.2 57.5 31 -2.8 26.9
23:15 1017 30.03 846 24.98 14.3 57.7 30 -3 26.5
23:20 1017 30.03 846 24.98 14.4 58 30 -3 26.6
23:25 1017 30.03 846 24.98 14.5 58.1 29 -3.2 26.3
23:30 1017 30.03 846 24.98 14.5 58.1 29 -3.1 26.3
23:35 1017 30.03 846 24.98 14.4 57.9 31 -2.5 27.5
23:40 1017 30.03 846 24.98 14.1 57.4 31 -2.8 27
23:45 1017 30.03 846 24.98 14.2 57.5 31 -2.6 27.3
23:50 1017 30.03 846 24.98 14 57.2 32 -2.5 27.6
23:55 1017 30.03 846 24.98 14 57.2 32 -2.6 27.4
24:00 1017 30.03 846 24.98 14.1 57.4 34 -1.6 29.1